createdAt,value
2022-11-05T00:01:51.088Z,2.10
2022-11-05T00:04:36.100Z,1.52
2022-11-05T00:07:39.668Z,1.70
2022-11-05T00:10:13.134Z,1.10
2022-11-05T00:12:58.328Z,1.98
2022-11-05T00:15:43.460Z,1.50
2022-11-05T00:18:09.986Z,1.40
2022-11-05T00:20:36.488Z,1.50
2022-11-05T00:23:22.698Z,1.40
2022-11-05T00:26:03.245Z,1.67
2022-11-05T00:28:30.171Z,2.40
2022-11-05T00:31:04.605Z,1.63
2022-11-05T00:33:31.600Z,1.70
2022-11-05T00:35:58.077Z,1.20
2022-11-05T00:38:24.722Z,1.35
2022-11-05T00:40:51.184Z,1.88
2022-11-05T00:43:36.261Z,2.22
2022-11-05T00:46:02.766Z,1.70
2022-11-05T00:48:47.645Z,1.80
2022-11-05T00:51:14.189Z,1.80
2022-11-05T00:53:40.651Z,1.45
2022-11-05T00:56:07.174Z,1.52
2022-11-05T00:58:33.620Z,1.45
2022-11-05T01:01:01.040Z,2.03
2022-11-05T01:03:33.049Z,1.77
2022-11-05T01:06:14.552Z,1.60
2022-11-05T01:08:42.537Z,1.60
2022-11-05T01:11:32.852Z,1.70
2022-11-05T01:14:05.049Z,1.92
2022-11-05T01:16:31.994Z,1.30
2022-11-05T01:18:58.679Z,1.75
2022-11-05T01:21:25.187Z,2.17
2022-11-05T01:23:51.733Z,2.08
2022-11-05T01:26:18.267Z,1.90
2022-11-05T01:28:44.950Z,1.60
2022-11-05T01:31:11.525Z,2.05
2022-11-05T01:33:37.982Z,2.05
2022-11-05T01:36:05.006Z,2.00
2022-11-05T01:38:31.476Z,2.22
2022-11-05T01:40:57.980Z,2.00
2022-11-05T01:43:24.476Z,1.88
2022-11-05T01:45:56.816Z,1.75
2022-11-05T01:48:28.201Z,2.17
2022-11-05T01:51:03.065Z,1.70
2022-11-05T01:53:38.414Z,2.30
2022-11-05T01:56:24.629Z,1.85
2022-11-05T01:58:57.497Z,2.17
2022-11-05T02:01:24.529Z,2.15
2022-11-05T02:03:53.853Z,1.80
2022-11-05T02:06:21.390Z,2.10
2022-11-05T02:09:07.216Z,2.45
2022-11-05T02:11:33.734Z,1.90
2022-11-05T02:14:00.340Z,1.98
2022-11-05T02:16:39.919Z,2.40
2022-11-05T02:19:25.042Z,1.92
2022-11-05T02:22:15.589Z,2.03
2022-11-05T02:24:57.088Z,1.65
2022-11-05T02:27:53.300Z,2.00
2022-11-05T02:30:55.403Z,2.75
2022-11-05T02:33:33.996Z,2.25
2022-11-05T02:36:03.389Z,2.72
2022-11-05T02:38:53.794Z,2.33
2022-11-05T02:41:29.629Z,2.03
2022-11-05T02:44:02.137Z,2.38
2022-11-05T02:46:34.435Z,2.10
2022-11-05T02:49:23.405Z,2.17
2022-11-05T02:51:58.246Z,1.88
2022-11-05T02:54:50.190Z,1.90
2022-11-05T02:57:19.533Z,1.80
2022-11-05T02:59:46.077Z,1.80
2022-11-05T03:02:12.867Z,1.58
2022-11-05T03:04:39.441Z,1.60
2022-11-05T03:07:27.350Z,1.52
2022-11-05T03:10:32.644Z,1.55
2022-11-05T03:13:04.313Z,1.50
2022-11-05T03:15:52.432Z,1.55
2022-11-05T03:18:25.731Z,1.85
2022-11-05T03:21:04.320Z,1.23
2022-11-05T03:23:42.574Z,1.40
2022-11-05T03:26:31.767Z,1.42
2022-11-05T03:29:06.460Z,1.27
2022-11-05T03:31:35.122Z,2.17
2022-11-05T03:34:03.379Z,1.73
2022-11-05T03:36:41.173Z,1.77
2022-11-05T03:39:11.038Z,1.48
2022-11-05T03:41:39.413Z,1.92
2022-11-05T03:44:06.898Z,1.63
2022-11-05T03:46:38.626Z,1.88
2022-11-05T03:49:06.629Z,1.90
2022-11-05T03:51:38.366Z,1.65
2022-11-05T03:54:05.261Z,1.80
2022-11-05T03:56:42.837Z,1.63
2022-11-05T03:59:10.206Z,1.35
2022-11-05T04:01:38.022Z,1.60
2022-11-05T04:04:08.330Z,1.88
2022-11-05T04:06:53.827Z,2.13
2022-11-05T04:09:39.215Z,1.25
2022-11-05T04:12:24.370Z,1.70
2022-11-05T04:14:50.825Z,1.52
2022-11-05T04:17:17.272Z,1.55
2022-11-05T04:20:03.258Z,0.98
2022-11-05T04:22:52.912Z,1.52
2022-11-05T04:25:20.119Z,1.40
2022-11-05T04:27:46.700Z,1.40
2022-11-05T04:30:21.405Z,1.50
2022-11-05T04:33:04.549Z,1.25
2022-11-05T04:35:36.855Z,0.98
2022-11-05T04:38:05.506Z,1.42
2022-11-05T04:40:32.060Z,1.00
2022-11-05T04:42:58.583Z,1.08
2022-11-05T04:45:26.325Z,1.50
2022-11-05T04:47:52.800Z,1.15
2022-11-05T04:50:19.290Z,1.30
2022-11-05T04:52:45.743Z,0.95
2022-11-05T04:55:12.379Z,1.80
2022-11-05T04:57:38.861Z,1.20
2022-11-05T05:00:07.493Z,1.42
2022-11-05T05:02:34.949Z,1.40
2022-11-05T05:05:01.472Z,1.20
2022-11-05T05:07:28.489Z,1.60
2022-11-05T05:09:54.958Z,1.60
2022-11-05T05:12:22.263Z,1.55
2022-11-05T05:14:49.205Z,1.65
2022-11-05T05:17:16.265Z,1.23
2022-11-05T05:20:01.069Z,1.40
2022-11-05T05:22:27.774Z,1.30
2022-11-05T05:24:55.550Z,1.10
2022-11-05T05:27:23.460Z,1.63
2022-11-05T05:29:50.644Z,1.10
2022-11-05T05:32:17.261Z,1.65
2022-11-05T05:34:43.713Z,1.17
2022-11-05T05:37:10.183Z,1.63
2022-11-05T05:39:36.634Z,1.83
2022-11-05T05:42:03.086Z,1.65
2022-11-05T05:44:29.536Z,1.70
2022-11-05T05:46:55.979Z,1.65
2022-11-05T05:49:22.442Z,1.25
2022-11-05T05:51:49.634Z,1.20
2022-11-05T05:54:17.078Z,1.60
2022-11-05T05:56:46.237Z,2.10
2022-11-05T05:59:12.694Z,1.73
2022-11-05T06:01:39.616Z,1.27
2022-11-05T06:04:06.150Z,1.40
2022-11-05T06:06:32.593Z,1.30
2022-11-05T06:08:59.048Z,1.60
2022-11-05T06:11:25.854Z,1.65
2022-11-05T06:13:52.371Z,1.38
2022-11-05T06:16:21.350Z,1.38
2022-11-05T06:18:47.811Z,1.20
2022-11-05T06:21:17.000Z,1.20
2022-11-05T06:23:45.612Z,1.27
2022-11-05T06:26:14.569Z,1.52
2022-11-05T06:28:42.041Z,1.63
2022-11-05T06:31:09.656Z,1.13
2022-11-05T06:33:36.114Z,1.50
2022-11-05T06:36:04.257Z,1.30
2022-11-05T06:38:35.168Z,2.00
2022-11-05T06:41:07.260Z,1.52
2022-11-05T06:43:36.476Z,1.40
2022-11-05T06:46:03.302Z,1.60
2022-11-05T06:48:30.156Z,2.35
2022-11-05T06:50:56.603Z,1.48
2022-11-05T06:53:23.070Z,1.38
2022-11-05T06:55:49.558Z,1.48
2022-11-05T06:58:16.384Z,1.35
2022-11-05T07:00:42.935Z,1.23
2022-11-05T07:03:11.043Z,1.50
2022-11-05T07:05:40.563Z,1.58
2022-11-05T07:08:07.050Z,1.65
2022-11-05T07:10:33.504Z,1.33
2022-11-05T07:13:03.738Z,1.77
2022-11-05T07:15:33.153Z,1.33
2022-11-05T07:18:00.432Z,1.60
2022-11-05T07:20:32.326Z,1.10
2022-11-05T07:23:20.372Z,1.50
2022-11-05T07:25:46.856Z,1.27
2022-11-05T07:28:14.369Z,1.13
2022-11-05T07:30:40.832Z,1.65
2022-11-05T07:33:07.396Z,1.58
2022-11-05T07:35:33.855Z,1.70
2022-11-05T07:38:00.313Z,1.27
2022-11-05T07:40:28.716Z,1.40
2022-11-05T07:42:59.752Z,1.25
2022-11-05T07:45:27.441Z,1.30
2022-11-05T07:47:59.130Z,1.10
2022-11-05T07:50:27.074Z,1.80
2022-11-05T07:52:53.651Z,1.33
2022-11-05T07:55:20.723Z,1.38
2022-11-05T07:57:48.994Z,1.35
2022-11-05T08:00:21.106Z,1.33
2022-11-05T08:03:00.911Z,1.23
2022-11-05T08:05:44.465Z,1.20
2022-11-05T08:08:12.626Z,1.52
2022-11-05T08:10:39.396Z,1.33
2022-11-05T08:13:07.047Z,1.17
2022-11-05T08:15:34.204Z,1.17
2022-11-05T08:18:20.842Z,1.10
2022-11-05T08:20:47.474Z,1.00
2022-11-05T08:23:14.512Z,0.82
2022-11-05T08:25:41.912Z,1.10
2022-11-05T08:28:11.406Z,1.02
2022-11-05T08:30:37.966Z,0.90
2022-11-05T08:33:07.037Z,1.15
2022-11-05T08:35:35.001Z,0.90
2022-11-05T08:38:03.121Z,0.90
2022-11-05T08:40:34.645Z,1.17
2022-11-05T08:43:05.319Z,1.05
2022-11-05T08:45:31.764Z,1.17
2022-11-05T08:48:03.119Z,0.98
2022-11-05T08:50:29.803Z,1.10
2022-11-05T08:52:56.438Z,0.80
2022-11-05T08:55:23.049Z,0.90
2022-11-05T08:57:55.220Z,1.17
2022-11-05T09:00:21.659Z,1.35
2022-11-05T09:02:48.113Z,0.85
2022-11-05T09:05:14.561Z,1.00
2022-11-05T09:07:41.049Z,1.20
2022-11-05T09:10:07.733Z,1.60
2022-11-05T09:12:34.226Z,1.30
2022-11-05T09:15:00.685Z,1.77
2022-11-05T09:17:27.153Z,1.20
2022-11-05T09:19:53.645Z,1.38
2022-11-05T09:22:20.092Z,0.95
2022-11-05T09:24:46.557Z,0.93
2022-11-05T09:27:14.517Z,1.27
2022-11-05T09:29:41.688Z,1.30
2022-11-05T09:32:08.588Z,1.27
2022-11-05T09:34:35.477Z,1.25
2022-11-05T09:37:02.011Z,1.15
2022-11-05T09:39:28.472Z,0.93
2022-11-05T09:41:59.267Z,0.90
2022-11-05T09:44:29.069Z,0.63
2022-11-05T09:47:01.002Z,0.88
2022-11-05T09:49:39.694Z,0.75
2022-11-05T09:52:19.084Z,0.80
2022-11-05T09:54:47.984Z,0.68
2022-11-05T09:57:18.899Z,0.70
2022-11-05T09:59:48.395Z,0.43
2022-11-05T10:02:46.176Z,0.52
2022-11-05T10:05:13.755Z,0.80
2022-11-05T10:07:47.189Z,0.80
2022-11-05T10:10:41.182Z,0.43
2022-11-05T10:13:13.565Z,0.75
2022-11-05T10:15:44.276Z,0.70
2022-11-05T10:18:19.401Z,0.50
2022-11-05T10:20:48.456Z,0.90
2022-11-05T10:23:19.598Z,0.93
2022-11-05T10:25:50.532Z,0.60
2022-11-05T10:28:19.792Z,0.65
2022-11-05T10:30:47.714Z,0.73
2022-11-05T10:33:18.590Z,0.95
2022-11-05T10:35:53.587Z,0.40
2022-11-05T10:38:20.092Z,0.50
2022-11-05T10:41:27.707Z,0.65
2022-11-05T10:44:01.033Z,0.63
2022-11-05T10:46:36.279Z,0.52
2022-11-05T10:49:18.813Z,0.68
2022-11-05T10:51:46.723Z,0.57
2022-11-05T10:54:19.634Z,0.65
2022-11-05T10:56:46.223Z,0.28
2022-11-05T10:59:24.140Z,0.60
2022-11-05T11:02:17.473Z,0.60
2022-11-05T11:04:43.995Z,0.80
2022-11-05T11:07:28.546Z,0.80
2022-11-05T11:09:55.111Z,0.60
2022-11-05T11:12:24.636Z,0.70
2022-11-05T11:15:15.056Z,1.08
2022-11-05T11:17:41.591Z,0.95
2022-11-05T11:20:24.467Z,0.85
2022-11-05T11:23:12.636Z,1.05
2022-11-05T11:25:46.179Z,1.00
2022-11-05T11:28:20.020Z,0.73
2022-11-05T11:30:49.173Z,0.85
2022-11-05T11:33:20.231Z,0.93
2022-11-05T11:35:47.396Z,0.90
2022-11-05T11:38:15.785Z,0.65
2022-11-05T11:40:42.459Z,0.90
2022-11-05T11:43:35.789Z,1.20
2022-11-05T11:46:07.777Z,0.90
2022-11-05T11:48:36.394Z,0.90
2022-11-05T11:51:20.102Z,1.05
2022-11-05T11:53:49.703Z,0.93
2022-11-05T11:56:18.965Z,0.82
2022-11-05T11:58:49.587Z,0.60
2022-11-05T12:01:39.780Z,1.00
2022-11-05T12:04:35.307Z,0.90
2022-11-05T12:07:28.094Z,0.75
2022-11-05T12:10:14.892Z,0.73
2022-11-05T12:12:49.607Z,0.57
2022-11-05T12:15:37.755Z,0.90
2022-11-05T12:18:06.507Z,0.35
2022-11-05T12:20:57.828Z,0.68
2022-11-05T12:23:34.678Z,0.82
2022-11-05T12:26:30.129Z,0.82
2022-11-05T12:29:35.788Z,0.85
2022-11-05T12:32:20.951Z,0.43
2022-11-05T12:35:10.898Z,0.65
2022-11-05T12:38:12.349Z,0.50
2022-11-05T12:41:00.495Z,0.68
2022-11-05T12:43:32.760Z,1.05
2022-11-05T12:46:23.172Z,0.68
2022-11-05T12:49:20.674Z,0.90
2022-11-05T12:52:03.516Z,0.75
2022-11-05T12:54:51.725Z,0.70
2022-11-05T12:57:19.867Z,0.60
2022-11-05T12:59:52.444Z,0.65
2022-11-05T13:02:24.914Z,0.77
2022-11-05T13:04:59.232Z,0.80
2022-11-05T13:07:32.623Z,1.10
2022-11-05T13:10:06.294Z,1.13
2022-11-05T13:12:35.549Z,0.82
2022-11-05T13:15:28.267Z,0.93
2022-11-05T13:18:13.238Z,0.90
2022-11-05T13:20:41.577Z,0.80
2022-11-05T13:23:29.880Z,0.77
2022-11-05T13:26:00.640Z,1.15
2022-11-05T13:28:35.751Z,0.82
2022-11-05T13:31:03.630Z,0.90
2022-11-05T13:33:44.556Z,0.70
2022-11-05T13:37:06.441Z,0.95
2022-11-05T13:39:53.297Z,0.70
2022-11-05T13:42:47.817Z,1.13
2022-11-05T13:45:42.461Z,1.02
2022-11-05T13:48:32.326Z,1.00
2022-11-05T13:51:17.564Z,0.90
2022-11-05T13:54:22.762Z,0.90
2022-11-05T13:57:07.170Z,1.40
2022-11-05T14:00:09.066Z,1.42
2022-11-05T14:02:42.387Z,1.17
2022-11-05T14:05:22.616Z,1.35
2022-11-05T14:07:49.508Z,1.58
2022-11-05T14:10:39.038Z,1.10
2022-11-05T14:13:18.075Z,1.65
2022-11-05T14:16:02.109Z,1.60
2022-11-05T14:18:37.052Z,1.88
2022-11-05T14:21:05.529Z,1.10
2022-11-05T14:23:40.138Z,0.88
2022-11-05T14:26:24.443Z,1.00
2022-11-05T14:29:10.675Z,1.17
2022-11-05T14:34:56.917Z,0.70
2022-11-05T14:37:25.999Z,1.30
2022-11-05T14:39:53.677Z,1.20
2022-11-05T14:42:24.798Z,1.23
2022-11-05T14:45:02.213Z,1.27
2022-11-05T14:47:38.551Z,1.20
2022-11-05T14:50:11.910Z,0.80
2022-11-05T14:52:39.673Z,1.30
2022-11-05T14:55:07.243Z,1.30
2022-11-05T14:57:42.447Z,1.30
2022-11-05T15:00:40.483Z,1.10
2022-11-05T15:03:28.374Z,0.88
2022-11-05T15:06:04.861Z,1.00
2022-11-05T15:08:54.264Z,1.23
2022-11-05T15:11:30.525Z,1.00
2022-11-05T15:14:16.316Z,1.00
2022-11-05T15:16:43.730Z,1.08
2022-11-05T15:19:34.042Z,1.48
2022-11-05T15:22:04.433Z,1.20
2022-11-05T15:24:31.267Z,1.42
2022-11-05T15:27:08.296Z,1.58
2022-11-05T15:29:34.739Z,1.40
2022-11-05T15:32:01.214Z,1.60
2022-11-05T15:34:33.006Z,1.13
2022-11-05T15:37:12.536Z,1.55
2022-11-05T15:39:41.833Z,1.25
2022-11-05T15:42:18.730Z,1.38
2022-11-05T15:44:47.481Z,1.67
2022-11-05T15:47:15.100Z,1.05
2022-11-05T15:49:43.379Z,1.73
2022-11-05T15:52:17.702Z,1.80
2022-11-05T15:54:44.690Z,1.42
2022-11-05T15:57:28.529Z,1.20
2022-11-05T16:02:35.652Z,1.67
2022-11-05T16:05:06.642Z,1.20
2022-11-05T16:07:33.219Z,1.48
2022-11-05T16:10:00.984Z,1.40
2022-11-05T16:12:30.258Z,1.23
2022-11-05T16:15:17.689Z,1.10
2022-11-05T16:17:55.965Z,1.20
2022-11-05T16:20:32.259Z,1.40
2022-11-05T16:23:04.435Z,1.60
2022-11-05T16:25:43.561Z,1.40
2022-11-05T16:28:30.061Z,1.58
2022-11-05T16:31:01.630Z,2.22
2022-11-05T16:33:40.501Z,1.95
2022-11-05T16:36:07.938Z,1.90
2022-11-05T16:38:34.410Z,1.60
2022-11-05T16:41:00.902Z,2.72
2022-11-05T16:43:27.548Z,2.70
2022-11-05T16:45:55.877Z,1.80
2022-11-05T16:48:22.483Z,2.40
2022-11-05T16:50:49.039Z,2.28
2022-11-05T16:53:15.769Z,2.63
2022-11-05T16:55:43.538Z,2.88
2022-11-05T16:58:24.260Z,2.47
2022-11-05T17:00:52.917Z,2.80
2022-11-05T17:03:19.562Z,3.00
2022-11-05T17:05:46.197Z,2.40
2022-11-05T17:08:13.043Z,2.20
2022-11-05T17:10:39.748Z,2.45
2022-11-05T17:13:06.215Z,2.10
2022-11-05T17:15:36.552Z,2.17
2022-11-05T17:18:04.726Z,1.58
2022-11-05T17:20:38.268Z,2.08
2022-11-05T17:23:06.817Z,1.90
2022-11-05T17:25:34.074Z,2.10
2022-11-05T17:28:00.587Z,1.83
2022-11-05T17:30:28.259Z,1.38
2022-11-05T17:32:54.846Z,1.40
2022-11-05T17:35:21.420Z,1.48
2022-11-05T17:37:47.971Z,1.40
2022-11-05T17:40:16.948Z,1.83
2022-11-05T17:42:43.610Z,1.30
2022-11-05T17:45:11.360Z,1.38
2022-11-05T17:47:37.988Z,1.70
2022-11-05T17:50:05.644Z,1.70
2022-11-05T17:52:32.169Z,1.52
2022-11-05T17:54:58.612Z,1.73
2022-11-05T17:57:25.121Z,2.05
2022-11-05T17:59:51.699Z,1.50
2022-11-05T18:02:18.319Z,1.70
2022-11-05T18:04:44.942Z,1.90
2022-11-05T18:07:11.380Z,1.80
2022-11-05T18:09:37.902Z,2.17
2022-11-05T18:12:04.718Z,2.00
2022-11-05T18:14:31.193Z,1.95
2022-11-05T18:17:00.125Z,1.98
2022-11-05T18:19:27.675Z,2.83
2022-11-05T18:21:54.873Z,2.53
2022-11-05T18:24:21.888Z,2.47
2022-11-05T18:26:48.650Z,2.40
2022-11-05T18:29:15.173Z,2.90
2022-11-05T18:31:41.618Z,3.10
2022-11-05T18:34:10.277Z,3.38
2022-11-05T18:36:36.801Z,3.20
2022-11-05T18:39:04.018Z,3.83
2022-11-05T18:41:30.544Z,3.28
2022-11-05T18:43:59.797Z,3.08
2022-11-05T18:46:51.643Z,2.80
2022-11-05T18:49:13.700Z,2.85
2022-11-05T18:51:40.424Z,3.22
2022-11-05T18:54:07.363Z,3.38
2022-11-05T18:56:33.839Z,3.45
2022-11-05T18:59:30.172Z,3.55
2022-11-05T19:01:47.089Z,3.35
2022-11-05T19:04:13.734Z,4.28
2022-11-05T19:06:40.562Z,4.43
2022-11-05T19:09:11.839Z,4.72
2022-11-05T19:11:39.009Z,6.15
2022-11-05T19:14:05.500Z,6.03
2022-11-05T19:16:32.035Z,6.28
2022-11-05T19:18:59.755Z,6.70
2022-11-05T19:21:26.734Z,7.53
2022-11-05T19:23:53.324Z,7.65
2022-11-05T19:26:28.119Z,7.25
2022-11-05T19:28:55.511Z,7.65
2022-11-05T19:31:23.518Z,7.95
2022-11-05T19:33:51.047Z,7.80
2022-11-05T19:36:18.633Z,7.95
2022-11-05T19:38:45.087Z,7.68
2022-11-05T19:41:14.080Z,8.57
2022-11-05T19:43:42.383Z,8.80
2022-11-05T19:46:14.266Z,7.90
2022-11-05T19:48:40.946Z,9.10
2022-11-05T19:51:09.463Z,9.82
2022-11-05T19:53:37.810Z,9.32
2022-11-05T19:56:06.512Z,9.07
2022-11-05T19:58:32.997Z,8.98
2022-11-05T20:00:59.479Z,10.20
2022-11-05T20:03:25.960Z,9.35
2022-11-05T20:05:52.458Z,8.82
2022-11-05T20:08:18.961Z,9.57
2022-11-05T20:10:46.156Z,9.85
2022-11-05T20:13:18.567Z,9.35
2022-11-05T20:18:16.051Z,8.38
2022-11-05T20:20:43.903Z,9.70
2022-11-05T20:23:11.517Z,9.18
2022-11-05T20:25:38.506Z,9.52
2022-11-05T20:28:05.351Z,8.63
2022-11-05T20:30:31.903Z,9.27
2022-11-05T20:32:58.385Z,9.38
2022-11-05T20:35:25.028Z,9.43
2022-11-05T20:37:54.149Z,9.75
2022-11-05T20:40:20.969Z,10.52
2022-11-05T20:42:47.448Z,10.10
2022-11-05T20:45:13.917Z,10.00
2022-11-05T20:47:40.472Z,9.68
2022-11-05T20:50:07.883Z,10.05
2022-11-05T20:52:34.383Z,10.48
2022-11-05T20:55:02.189Z,10.15
2022-11-05T20:57:28.797Z,11.07
2022-11-05T20:59:55.325Z,9.77
2022-11-05T21:02:21.917Z,11.27
2022-11-05T21:04:48.587Z,11.32
2022-11-05T21:07:15.063Z,11.18
2022-11-05T21:09:41.512Z,11.82
2022-11-05T21:12:11.100Z,10.93
2022-11-05T21:14:41.348Z,10.82
2022-11-05T21:17:09.541Z,11.38
2022-11-05T21:19:36.397Z,11.20
2022-11-05T21:22:04.167Z,11.20
2022-11-05T21:24:31.807Z,11.55
2022-11-05T21:26:58.287Z,11.77
2022-11-05T21:29:24.922Z,10.98
2022-11-05T21:31:51.508Z,11.63
2022-11-05T21:34:18.856Z,11.27
2022-11-05T21:36:46.977Z,11.30
2022-11-05T21:39:14.043Z,10.77
2022-11-05T21:41:40.725Z,10.93
2022-11-05T21:44:07.238Z,11.73
2022-11-05T21:46:33.737Z,12.15
2022-11-05T21:49:00.245Z,11.57
2022-11-05T21:51:45.480Z,11.45
2022-11-05T21:54:30.490Z,11.35
2022-11-05T21:57:16.289Z,11.45
2022-11-05T21:59:48.548Z,10.82
2022-11-05T22:02:22.679Z,10.70
2022-11-05T22:05:03.058Z,10.98
2022-11-05T22:07:32.437Z,11.23
2022-11-05T22:10:01.302Z,10.93
2022-11-05T22:12:28.155Z,10.75
2022-11-05T22:14:55.072Z,11.13
2022-11-05T22:17:21.836Z,11.32
2022-11-05T22:19:48.389Z,10.38
2022-11-05T22:22:15.156Z,10.95
2022-11-05T22:24:42.093Z,11.18
2022-11-05T22:27:12.812Z,10.25
2022-11-05T22:29:40.543Z,10.23
2022-11-05T22:32:07.249Z,10.65
2022-11-05T22:34:33.729Z,10.23
2022-11-05T22:37:00.349Z,9.77
2022-11-05T22:39:26.811Z,10.05
2022-11-05T22:41:54.731Z,10.32
2022-11-05T22:44:21.438Z,10.25
2022-11-05T22:46:48.004Z,9.88
2022-11-05T22:49:14.785Z,9.57
2022-11-05T22:51:41.342Z,10.43
2022-11-05T22:54:09.101Z,10.25
2022-11-05T22:56:41.898Z,10.68
2022-11-05T22:59:11.934Z,10.20
2022-11-05T23:01:38.701Z,9.82
2022-11-05T23:04:05.461Z,10.93
2022-11-05T23:06:54.670Z,9.85
2022-11-05T23:09:42.384Z,9.43
2022-11-05T23:12:22.213Z,10.50
2022-11-05T23:14:49.999Z,11.13
2022-11-05T23:17:35.012Z,9.88
2022-11-05T23:20:20.182Z,10.43
2022-11-05T23:23:05.250Z,10.00
2022-11-05T23:25:31.743Z,10.50
2022-11-05T23:27:58.206Z,10.52
2022-11-05T23:30:26.175Z,10.68
2022-11-05T23:32:53.389Z,10.60
2022-11-05T23:35:43.142Z,10.45
2022-11-05T23:38:28.079Z,10.18
2022-11-05T23:41:13.020Z,10.00
2022-11-05T23:43:57.996Z,10.77
2022-11-05T23:46:43.075Z,10.90
2022-11-05T23:49:09.531Z,10.30
2022-11-05T23:51:35.983Z,10.50
2022-11-05T23:54:02.462Z,11.20
2022-11-05T23:56:28.904Z,11.00
2022-11-05T23:58:55.387Z,11.35
